Airfield :







YOU CAN JOIN US ON...

 
LOGIN :

Register | Disclaimer

   EN    FR    IT 

 









Legend :    VFR   Marginal VFR   IFR   Intensive IFR   Very Intensive IFR
Visi :
Ceiling :
>= 8 km
>= 3000ft
5 to 8 km
1000 to 3000 ft
1500m to 5 km
500 to 1000 ft
800 to 1500m
200 to 500 ft
< 800m
< 200 ft
Symbols :   Thunderstorms  Fog  Heavy snow  Heavy precipitations  Wind > 20 kt






- Airport Elevation : 117 ft
- IATA code : KUS


BGKK - Kulusuk

CURRENT METAR :
  • 210950Z AUTO 31008KT 9999NDV NCD 07/03 Q1008

EXPIRED METARs :
  • 210850Z AUTO 28006KT 260V320 9999NDV NCD 07/02 Q1008
  • 210750Z AUTO 31006KT 9999NDV NCD 07/03 Q1008
  • 210650Z AUTO 29004KT 9999NDV NCD 04/02 Q1008
  • 210550Z AUTO 28006KT 9999NDV NCD 04/02 Q1009

Expired Forecast.
BGGL FIR / North America



MET'MAP, your aeronautical weather chart ! - Copyright ORBIFLY December 2007 - Disclaimer

ORBIFLY MET'MAP TEAM :

Programming & Development : Alexandra Zaïnal
Original concept : Baudouin d'Aumeries
Technical & hardware support : Manuel Goepfert
Assistance : Marc-Olivier Méhu




SOURCES & CREDITS :

   NOAA